sensor_id;sensor_type;location;lat;lon;timestamp;P1;durP1;ratioP1;P2;durP2;ratioP2
84510;SDS011;74730;43.858;18.424;2024-02-26T00:01:39;154.55;;;65.07;;
84510;SDS011;74730;43.858;18.424;2024-02-26T00:04:05;151.15;;;66.82;;
84510;SDS011;74730;43.858;18.424;2024-02-26T00:06:31;152.45;;;63.35;;
84510;SDS011;74730;43.858;18.424;2024-02-26T00:08:57;152.43;;;66.03;;
84510;SDS011;74730;43.858;18.424;2024-02-26T00:11:23;147.50;;;63.97;;
84510;SDS011;74730;43.858;18.424;2024-02-26T00:13:49;138.35;;;61.95;;
84510;SDS011;74730;43.858;18.424;2024-02-26T00:16:14;134.63;;;56.70;;
84510;SDS011;74730;43.858;18.424;2024-02-26T00:18:40;116.95;;;52.10;;
84510;SDS011;74730;43.858;18.424;2024-02-26T00:21:06;94.18;;;44.00;;
84510;SDS011;74730;43.858;18.424;2024-02-26T00:23:31;75.57;;;34.55;;
84510;SDS011;74730;43.858;18.424;2024-02-26T00:25:57;82.50;;;33.90;;
84510;SDS011;74730;43.858;18.424;2024-02-26T00:28:23;55.70;;;26.23;;
84510;SDS011;74730;43.858;18.424;2024-02-26T00:30:50;47.05;;;24.35;;
84510;SDS011;74730;43.858;18.424;2024-02-26T00:33:21;43.37;;;21.43;;
84510;SDS011;74730;43.858;18.424;2024-02-26T00:35:47;33.13;;;16.52;;
84510;SDS011;74730;43.858;18.424;2024-02-26T00:38:13;38.20;;;16.55;;
84510;SDS011;74730;43.858;18.424;2024-02-26T00:40:38;39.03;;;19.73;;
84510;SDS011;74730;43.858;18.424;2024-02-26T00:43:06;41.50;;;19.33;;
84510;SDS011;74730;43.858;18.424;2024-02-26T00:45:32;43.72;;;22.38;;
84510;SDS011;74730;43.858;18.424;2024-02-26T00:47:58;49.13;;;24.77;;
84510;SDS011;74730;43.858;18.424;2024-02-26T00:50:23;56.22;;;25.70;;
84510;SDS011;74730;43.858;18.424;2024-02-26T00:52:49;38.90;;;18.17;;
84510;SDS011;74730;43.858;18.424;2024-02-26T00:55:14;19.48;;;10.57;;
84510;SDS011;74730;43.858;18.424;2024-02-26T00:57:40;25.23;;;12.73;;
84510;SDS011;74730;43.858;18.424;2024-02-26T01:00:06;22.63;;;13.07;;
84510;SDS011;74730;43.858;18.424;2024-02-26T01:02:34;21.27;;;11.73;;
84510;SDS011;74730;43.858;18.424;2024-02-26T01:04:59;20.35;;;11.07;;
84510;SDS011;74730;43.858;18.424;2024-02-26T01:07:25;17.42;;;9.75;;
84510;SDS011;74730;43.858;18.424;2024-02-26T01:09:50;38.08;;;17.02;;
84510;SDS011;74730;43.858;18.424;2024-02-26T01:12:16;31.48;;;16.30;;
84510;SDS011;74730;43.858;18.424;2024-02-26T01:14:42;27.38;;;14.43;;
84510;SDS011;74730;43.858;18.424;2024-02-26T01:17:07;42.42;;;22.77;;
84510;SDS011;74730;43.858;18.424;2024-02-26T01:19:33;41.30;;;22.30;;
84510;SDS011;74730;43.858;18.424;2024-02-26T01:21:58;26.48;;;13.40;;
84510;SDS011;74730;43.858;18.424;2024-02-26T01:24:24;36.97;;;18.20;;
84510;SDS011;74730;43.858;18.424;2024-02-26T01:26:49;26.75;;;14.68;;
84510;SDS011;74730;43.858;18.424;2024-02-26T01:29:15;27.50;;;14.60;;
84510;SDS011;74730;43.858;18.424;2024-02-26T01:31:40;24.50;;;12.75;;
84510;SDS011;74730;43.858;18.424;2024-02-26T01:34:06;20.38;;;11.65;;
84510;SDS011;74730;43.858;18.424;2024-02-26T01:36:31;32.97;;;15.35;;
84510;SDS011;74730;43.858;18.424;2024-02-26T01:38:57;48.10;;;22.52;;
84510;SDS011;74730;43.858;18.424;2024-02-26T01:41:22;61.88;;;30.25;;
84510;SDS011;74730;43.858;18.424;2024-02-26T01:43:48;66.90;;;33.72;;
84510;SDS011;74730;43.858;18.424;2024-02-26T01:46:14;85.13;;;41.53;;
84510;SDS011;74730;43.858;18.424;2024-02-26T01:48:43;88.97;;;44.20;;
84510;SDS011;74730;43.858;18.424;2024-02-26T01:51:10;86.78;;;40.35;;
84510;SDS011;74730;43.858;18.424;2024-02-26T01:53:39;91.65;;;43.45;;
84510;SDS011;74730;43.858;18.424;2024-02-26T01:56:05;96.78;;;43.60;;
84510;SDS011;74730;43.858;18.424;2024-02-26T01:58:31;89.93;;;41.22;;
84510;SDS011;74730;43.858;18.424;2024-02-26T02:00:58;80.90;;;41.20;;
84510;SDS011;74730;43.858;18.424;2024-02-26T02:03:24;87.63;;;42.80;;
84510;SDS011;74730;43.858;18.424;2024-02-26T02:05:50;93.97;;;44.25;;
84510;SDS011;74730;43.858;18.424;2024-02-26T02:08:15;103.95;;;46.05;;
84510;SDS011;74730;43.858;18.424;2024-02-26T02:10:41;85.18;;;42.83;;
84510;SDS011;74730;43.858;18.424;2024-02-26T02:13:07;105.13;;;48.58;;
84510;SDS011;74730;43.858;18.424;2024-02-26T02:15:33;101.15;;;48.50;;
84510;SDS011;74730;43.858;18.424;2024-02-26T02:17:59;110.07;;;48.65;;
84510;SDS011;74730;43.858;18.424;2024-02-26T02:20:25;118.95;;;52.97;;
84510;SDS011;74730;43.858;18.424;2024-02-26T02:23:00;123.78;;;51.47;;
84510;SDS011;74730;43.858;18.424;2024-02-26T02:25:27;123.70;;;54.58;;
84510;SDS011;74730;43.858;18.424;2024-02-26T02:27:55;130.05;;;55.47;;
84510;SDS011;74730;43.858;18.424;2024-02-26T02:30:25;124.18;;;55.25;;
84510;SDS011;74730;43.858;18.424;2024-02-26T02:32:57;131.98;;;53.63;;
84510;SDS011;74730;43.858;18.424;2024-02-26T02:35:24;126.78;;;55.13;;
84510;SDS011;74730;43.858;18.424;2024-02-26T02:37:51;132.73;;;57.08;;
84510;SDS011;74730;43.858;18.424;2024-02-26T02:40:17;121.65;;;54.15;;
84510;SDS011;74730;43.858;18.424;2024-02-26T02:42:43;131.15;;;56.90;;
84510;SDS011;74730;43.858;18.424;2024-02-26T02:45:08;121.45;;;54.55;;
84510;SDS011;74730;43.858;18.424;2024-02-26T02:47:37;126.90;;;54.78;;
84510;SDS011;74730;43.858;18.424;2024-02-26T02:50:03;124.15;;;55.97;;
84510;SDS011;74730;43.858;18.424;2024-02-26T02:52:29;134.45;;;57.17;;
84510;SDS011;74730;43.858;18.424;2024-02-26T02:54:54;130.90;;;57.38;;
84510;SDS011;74730;43.858;18.424;2024-02-26T02:57:20;139.18;;;55.92;;
84510;SDS011;74730;43.858;18.424;2024-02-26T02:59:46;124.22;;;51.00;;
84510;SDS011;74730;43.858;18.424;2024-02-26T03:02:12;130.32;;;53.22;;
84510;SDS011;74730;43.858;18.424;2024-02-26T03:04:37;134.35;;;55.30;;
84510;SDS011;74730;43.858;18.424;2024-02-26T03:07:03;126.03;;;53.38;;
84510;SDS011;74730;43.858;18.424;2024-02-26T03:09:28;140.50;;;54.67;;
84510;SDS011;74730;43.858;18.424;2024-02-26T03:11:54;121.68;;;53.10;;
84510;SDS011;74730;43.858;18.424;2024-02-26T03:14:19;132.50;;;53.45;;
84510;SDS011;74730;43.858;18.424;2024-02-26T03:16:45;124.60;;;54.20;;
84510;SDS011;74730;43.858;18.424;2024-02-26T03:19:11;134.27;;;53.58;;
84510;SDS011;74730;43.858;18.424;2024-02-26T03:21:40;126.32;;;52.95;;
84510;SDS011;74730;43.858;18.424;2024-02-26T03:24:06;130.75;;;54.28;;
84510;SDS011;74730;43.858;18.424;2024-02-26T03:26:34;141.32;;;53.00;;
84510;SDS011;74730;43.858;18.424;2024-02-26T03:28:59;127.15;;;52.75;;
84510;SDS011;74730;43.858;18.424;2024-02-26T03:31:27;129.43;;;54.85;;
84510;SDS011;74730;43.858;18.424;2024-02-26T03:33:53;122.65;;;52.20;;
84510;SDS011;74730;43.858;18.424;2024-02-26T03:36:18;119.45;;;51.13;;
84510;SDS011;74730;43.858;18.424;2024-02-26T03:38:44;118.65;;;49.72;;
84510;SDS011;74730;43.858;18.424;2024-02-26T03:41:10;114.82;;;49.50;;
84510;SDS011;74730;43.858;18.424;2024-02-26T03:43:35;118.93;;;48.88;;
84510;SDS011;74730;43.858;18.424;2024-02-26T03:46:01;117.70;;;49.20;;
84510;SDS011;74730;43.858;18.424;2024-02-26T03:48:27;122.50;;;49.10;;
84510;SDS011;74730;43.858;18.424;2024-02-26T03:50:52;124.80;;;50.90;;
84510;SDS011;74730;43.858;18.424;2024-02-26T03:53:18;123.70;;;49.17;;
84510;SDS011;74730;43.858;18.424;2024-02-26T03:55:43;113.95;;;49.85;;
84510;SDS011;74730;43.858;18.424;2024-02-26T03:58:09;113.28;;;50.03;;
84510;SDS011;74730;43.858;18.424;2024-02-26T04:00:37;125.38;;;48.80;;
84510;SDS011;74730;43.858;18.424;2024-02-26T04:03:02;123.55;;;49.25;;
84510;SDS011;74730;43.858;18.424;2024-02-26T04:05:28;125.35;;;50.92;;
84510;SDS011;74730;43.858;18.424;2024-02-26T04:07:54;116.55;;;46.60;;
84510;SDS011;74730;43.858;18.424;2024-02-26T04:10:19;117.07;;;49.38;;
84510;SDS011;74730;43.858;18.424;2024-02-26T04:12:45;115.55;;;48.60;;
84510;SDS011;74730;43.858;18.424;2024-02-26T04:15:11;120.63;;;51.40;;
84510;SDS011;74730;43.858;18.424;2024-02-26T04:17:36;116.88;;;50.45;;
84510;SDS011;74730;43.858;18.424;2024-02-26T04:20:03;107.13;;;47.97;;
84510;SDS011;74730;43.858;18.424;2024-02-26T04:22:30;114.75;;;44.65;;
84510;SDS011;74730;43.858;18.424;2024-02-26T04:24:57;114.07;;;45.92;;
84510;SDS011;74730;43.858;18.424;2024-02-26T04:27:22;117.88;;;46.45;;
84510;SDS011;74730;43.858;18.424;2024-02-26T04:29:48;106.63;;;45.80;;
84510;SDS011;74730;43.858;18.424;2024-02-26T04:32:13;114.55;;;47.30;;
84510;SDS011;74730;43.858;18.424;2024-02-26T04:34:39;120.00;;;46.42;;
84510;SDS011;74730;43.858;18.424;2024-02-26T04:37:04;120.72;;;46.00;;
84510;SDS011;74730;43.858;18.424;2024-02-26T04:39:30;118.72;;;50.30;;
84510;SDS011;74730;43.858;18.424;2024-02-26T04:41:55;129.57;;;48.22;;
84510;SDS011;74730;43.858;18.424;2024-02-26T04:44:21;127.65;;;48.15;;
84510;SDS011;74730;43.858;18.424;2024-02-26T04:46:46;124.47;;;47.80;;
84510;SDS011;74730;43.858;18.424;2024-02-26T04:49:12;125.70;;;49.05;;
84510;SDS011;74730;43.858;18.424;2024-02-26T04:51:37;129.35;;;48.75;;
84510;SDS011;74730;43.858;18.424;2024-02-26T04:54:03;128.07;;;48.55;;
84510;SDS011;74730;43.858;18.424;2024-02-26T04:56:28;124.45;;;49.40;;
84510;SDS011;74730;43.858;18.424;2024-02-26T04:58:54;123.72;;;47.50;;
84510;SDS011;74730;43.858;18.424;2024-02-26T05:01:20;120.95;;;48.33;;
84510;SDS011;74730;43.858;18.424;2024-02-26T05:03:46;122.90;;;47.50;;
84510;SDS011;74730;43.858;18.424;2024-02-26T05:06:11;118.43;;;46.78;;
84510;SDS011;74730;43.858;18.424;2024-02-26T05:08:37;121.40;;;46.15;;
84510;SDS011;74730;43.858;18.424;2024-02-26T05:11:04;125.60;;;45.78;;
84510;SDS011;74730;43.858;18.424;2024-02-26T05:13:30;121.38;;;45.95;;
84510;SDS011;74730;43.858;18.424;2024-02-26T05:15:56;119.13;;;47.53;;
84510;SDS011;74730;43.858;18.424;2024-02-26T05:18:21;122.93;;;50.17;;
84510;SDS011;74730;43.858;18.424;2024-02-26T05:20:47;118.93;;;44.22;;
84510;SDS011;74730;43.858;18.424;2024-02-26T05:23:13;123.95;;;44.58;;
84510;SDS011;74730;43.858;18.424;2024-02-26T05:25:38;112.70;;;43.90;;
84510;SDS011;74730;43.858;18.424;2024-02-26T05:28:04;131.63;;;48.88;;
84510;SDS011;74730;43.858;18.424;2024-02-26T05:30:30;113.95;;;44.20;;
84510;SDS011;74730;43.858;18.424;2024-02-26T05:32:55;114.38;;;42.58;;
84510;SDS011;74730;43.858;18.424;2024-02-26T05:35:21;120.90;;;44.15;;
84510;SDS011;74730;43.858;18.424;2024-02-26T05:37:46;118.30;;;46.28;;
84510;SDS011;74730;43.858;18.424;2024-02-26T05:40:12;116.22;;;46.05;;
84510;SDS011;74730;43.858;18.424;2024-02-26T05:42:38;123.60;;;47.38;;
84510;SDS011;74730;43.858;18.424;2024-02-26T05:45:03;129.30;;;46.03;;
84510;SDS011;74730;43.858;18.424;2024-02-26T05:47:34;125.97;;;47.60;;
84510;SDS011;74730;43.858;18.424;2024-02-26T05:50:00;124.43;;;45.83;;
84510;SDS011;74730;43.858;18.424;2024-02-26T05:52:26;119.82;;;43.95;;
84510;SDS011;74730;43.858;18.424;2024-02-26T05:54:53;116.63;;;45.15;;
84510;SDS011;74730;43.858;18.424;2024-02-26T05:57:19;122.43;;;45.25;;
84510;SDS011;74730;43.858;18.424;2024-02-26T05:59:44;120.78;;;47.83;;
84510;SDS011;74730;43.858;18.424;2024-02-26T06:02:10;122.90;;;46.92;;
84510;SDS011;74730;43.858;18.424;2024-02-26T06:04:36;115.22;;;43.60;;
84510;SDS011;74730;43.858;18.424;2024-02-26T06:07:02;126.07;;;46.08;;
84510;SDS011;74730;43.858;18.424;2024-02-26T06:09:27;120.50;;;49.28;;
84510;SDS011;74730;43.858;18.424;2024-02-26T06:11:53;119.38;;;46.63;;
84510;SDS011;74730;43.858;18.424;2024-02-26T06:14:18;122.70;;;48.38;;
84510;SDS011;74730;43.858;18.424;2024-02-26T06:16:45;118.28;;;47.70;;
84510;SDS011;74730;43.858;18.424;2024-02-26T06:19:11;130.52;;;49.97;;
84510;SDS011;74730;43.858;18.424;2024-02-26T06:21:37;117.07;;;48.80;;
84510;SDS011;74730;43.858;18.424;2024-02-26T06:24:03;123.72;;;49.13;;
84510;SDS011;74730;43.858;18.424;2024-02-26T06:26:28;123.43;;;48.83;;
84510;SDS011;74730;43.858;18.424;2024-02-26T06:28:54;119.60;;;48.00;;
84510;SDS011;74730;43.858;18.424;2024-02-26T06:31:21;109.10;;;47.83;;
84510;SDS011;74730;43.858;18.424;2024-02-26T06:33:48;95.35;;;43.13;;
84510;SDS011;74730;43.858;18.424;2024-02-26T06:36:15;111.28;;;46.28;;
84510;SDS011;74730;43.858;18.424;2024-02-26T06:38:41;111.38;;;45.25;;
84510;SDS011;74730;43.858;18.424;2024-02-26T06:41:06;108.32;;;45.95;;
84510;SDS011;74730;43.858;18.424;2024-02-26T06:43:32;104.85;;;43.88;;
84510;SDS011;74730;43.858;18.424;2024-02-26T06:45:57;101.30;;;42.63;;
84510;SDS011;74730;43.858;18.424;2024-02-26T06:48:23;98.88;;;42.20;;
84510;SDS011;74730;43.858;18.424;2024-02-26T06:50:50;110.55;;;45.97;;
84510;SDS011;74730;43.858;18.424;2024-02-26T06:53:15;71.05;;;31.13;;
84510;SDS011;74730;43.858;18.424;2024-02-26T06:55:41;77.97;;;35.30;;
84510;SDS011;74730;43.858;18.424;2024-02-26T06:58:08;71.75;;;33.88;;
84510;SDS011;74730;43.858;18.424;2024-02-26T07:00:34;90.72;;;42.70;;
84510;SDS011;74730;43.858;18.424;2024-02-26T07:03:00;86.43;;;38.80;;
84510;SDS011;74730;43.858;18.424;2024-02-26T07:05:25;44.97;;;20.35;;
84510;SDS011;74730;43.858;18.424;2024-02-26T07:07:52;48.38;;;22.63;;
84510;SDS011;74730;43.858;18.424;2024-02-26T07:10:18;35.85;;;18.65;;
84510;SDS011;74730;43.858;18.424;2024-02-26T07:12:43;53.88;;;27.98;;
84510;SDS011;74730;43.858;18.424;2024-02-26T07:15:09;39.38;;;23.08;;
84510;SDS011;74730;43.858;18.424;2024-02-26T07:17:35;39.03;;;22.70;;
84510;SDS011;74730;43.858;18.424;2024-02-26T07:20:01;18.83;;;10.60;;
84510;SDS011;74730;43.858;18.424;2024-02-26T07:22:29;56.13;;;26.75;;
84510;SDS011;74730;43.858;18.424;2024-02-26T07:24:55;55.88;;;27.15;;
84510;SDS011;74730;43.858;18.424;2024-02-26T07:27:21;85.60;;;39.28;;
84510;SDS011;74730;43.858;18.424;2024-02-26T07:29:47;89.55;;;42.85;;
84510;SDS011;74730;43.858;18.424;2024-02-26T07:32:13;102.35;;;47.00;;
84510;SDS011;74730;43.858;18.424;2024-02-26T07:34:39;101.32;;;48.55;;
84510;SDS011;74730;43.858;18.424;2024-02-26T07:37:07;115.32;;;49.30;;
84510;SDS011;74730;43.858;18.424;2024-02-26T07:39:33;118.85;;;53.38;;
84510;SDS011;74730;43.858;18.424;2024-02-26T07:41:58;113.07;;;50.63;;
84510;SDS011;74730;43.858;18.424;2024-02-26T07:44:24;111.13;;;48.90;;
84510;SDS011;74730;43.858;18.424;2024-02-26T07:46:50;122.60;;;50.72;;
84510;SDS011;74730;43.858;18.424;2024-02-26T07:49:16;107.15;;;48.67;;
84510;SDS011;74730;43.858;18.424;2024-02-26T07:51:41;113.50;;;47.88;;
84510;SDS011;74730;43.858;18.424;2024-02-26T07:54:07;112.60;;;48.88;;
84510;SDS011;74730;43.858;18.424;2024-02-26T07:56:32;110.18;;;49.85;;
84510;SDS011;74730;43.858;18.424;2024-02-26T07:58:58;111.72;;;47.08;;
84510;SDS011;74730;43.858;18.424;2024-02-26T08:01:24;103.40;;;49.03;;
84510;SDS011;74730;43.858;18.424;2024-02-26T08:08:43;87.78;;;42.60;;
84510;SDS011;74730;43.858;18.424;2024-02-26T08:11:09;79.80;;;41.60;;
84510;SDS011;74730;43.858;18.424;2024-02-26T08:13:34;85.55;;;44.00;;
84510;SDS011;74730;43.858;18.424;2024-02-26T08:16:01;81.38;;;43.03;;
84510;SDS011;74730;43.858;18.424;2024-02-26T08:18:26;83.18;;;42.10;;
84510;SDS011;74730;43.858;18.424;2024-02-26T08:20:52;88.22;;;44.33;;
84510;SDS011;74730;43.858;18.424;2024-02-26T08:23:18;82.57;;;42.45;;
84510;SDS011;74730;43.858;18.424;2024-02-26T08:25:43;83.93;;;43.00;;
84510;SDS011;74730;43.858;18.424;2024-02-26T08:28:09;84.15;;;43.63;;
84510;SDS011;74730;43.858;18.424;2024-02-26T08:30:38;76.13;;;41.75;;
84510;SDS011;74730;43.858;18.424;2024-02-26T08:33:04;75.20;;;40.65;;
84510;SDS011;74730;43.858;18.424;2024-02-26T08:35:29;72.10;;;40.28;;
84510;SDS011;74730;43.858;18.424;2024-02-26T08:37:55;81.05;;;41.03;;
84510;SDS011;74730;43.858;18.424;2024-02-26T08:40:21;76.60;;;40.30;;
84510;SDS011;74730;43.858;18.424;2024-02-26T08:42:47;71.70;;;38.80;;
84510;SDS011;74730;43.858;18.424;2024-02-26T08:45:12;76.43;;;38.88;;
84510;SDS011;74730;43.858;18.424;2024-02-26T08:47:38;82.78;;;40.50;;
84510;SDS011;74730;43.858;18.424;2024-02-26T08:50:04;70.82;;;38.85;;
84510;SDS011;74730;43.858;18.424;2024-02-26T08:52:31;76.72;;;39.28;;
84510;SDS011;74730;43.858;18.424;2024-02-26T08:54:57;76.93;;;41.75;;
84510;SDS011;74730;43.858;18.424;2024-02-26T08:57:23;71.07;;;39.65;;
84510;SDS011;74730;43.858;18.424;2024-02-26T08:59:49;71.43;;;39.20;;
84510;SDS011;74730;43.858;18.424;2024-02-26T09:02:14;78.82;;;41.30;;
84510;SDS011;74730;43.858;18.424;2024-02-26T09:04:41;75.53;;;41.00;;
84510;SDS011;74730;43.858;18.424;2024-02-26T09:07:07;68.65;;;37.70;;
84510;SDS011;74730;43.858;18.424;2024-02-26T09:09:32;72.78;;;37.70;;
84510;SDS011;74730;43.858;18.424;2024-02-26T09:11:58;68.95;;;36.75;;
84510;SDS011;74730;43.858;18.424;2024-02-26T09:14:24;63.60;;;34.72;;
84510;SDS011;74730;43.858;18.424;2024-02-26T09:16:49;61.58;;;34.22;;
84510;SDS011;74730;43.858;18.424;2024-02-26T09:19:15;68.68;;;35.95;;
84510;SDS011;74730;43.858;18.424;2024-02-26T09:21:44;64.18;;;34.22;;
84510;SDS011;74730;43.858;18.424;2024-02-26T09:24:10;56.83;;;29.90;;
84510;SDS011;74730;43.858;18.424;2024-02-26T09:26:37;51.33;;;30.80;;
84510;SDS011;74730;43.858;18.424;2024-02-26T09:29:03;54.17;;;30.40;;
84510;SDS011;74730;43.858;18.424;2024-02-26T09:31:29;55.22;;;29.13;;
84510;SDS011;74730;43.858;18.424;2024-02-26T09:33:55;58.45;;;28.27;;
84510;SDS011;74730;43.858;18.424;2024-02-26T09:36:21;52.75;;;29.08;;
84510;SDS011;74730;43.858;18.424;2024-02-26T09:38:47;55.08;;;29.73;;
84510;SDS011;74730;43.858;18.424;2024-02-26T09:41:16;45.15;;;28.15;;
84510;SDS011;74730;43.858;18.424;2024-02-26T09:43:43;43.88;;;23.98;;
84510;SDS011;74730;43.858;18.424;2024-02-26T09:46:12;46.88;;;26.25;;
84510;SDS011;74730;43.858;18.424;2024-02-26T09:48:39;52.42;;;29.05;;
84510;SDS011;74730;43.858;18.424;2024-02-26T09:51:07;53.13;;;26.80;;
84510;SDS011;74730;43.858;18.424;2024-02-26T09:53:35;36.30;;;18.27;;
84510;SDS011;74730;43.858;18.424;2024-02-26T09:56:06;30.48;;;17.63;;
84510;SDS011;74730;43.858;18.424;2024-02-26T09:58:32;37.72;;;20.08;;
84510;SDS011;74730;43.858;18.424;2024-02-26T10:01:00;41.05;;;21.27;;
84510;SDS011;74730;43.858;18.424;2024-02-26T10:03:28;40.55;;;23.08;;
84510;SDS011;74730;43.858;18.424;2024-02-26T10:05:59;35.47;;;21.15;;
84510;SDS011;74730;43.858;18.424;2024-02-26T10:08:27;41.65;;;21.50;;
84510;SDS011;74730;43.858;18.424;2024-02-26T10:10:55;34.47;;;20.08;;
84510;SDS011;74730;43.858;18.424;2024-02-26T10:13:21;44.28;;;23.90;;
84510;SDS011;74730;43.858;18.424;2024-02-26T10:15:48;49.22;;;25.55;;
84510;SDS011;74730;43.858;18.424;2024-02-26T10:18:14;48.53;;;27.10;;
84510;SDS011;74730;43.858;18.424;2024-02-26T10:20:40;55.65;;;29.23;;
84510;SDS011;74730;43.858;18.424;2024-02-26T10:23:05;62.28;;;30.02;;
84510;SDS011;74730;43.858;18.424;2024-02-26T10:25:31;54.75;;;31.92;;
84510;SDS011;74730;43.858;18.424;2024-02-26T10:28:00;51.03;;;28.05;;
84510;SDS011;74730;43.858;18.424;2024-02-26T10:30:30;45.38;;;25.45;;
84510;SDS011;74730;43.858;18.424;2024-02-26T10:32:56;43.85;;;23.08;;
84510;SDS011;74730;43.858;18.424;2024-02-26T10:35:23;37.30;;;20.00;;
84510;SDS011;74730;43.858;18.424;2024-02-26T10:37:50;30.50;;;16.20;;
84510;SDS011;74730;43.858;18.424;2024-02-26T10:40:18;31.17;;;16.45;;
84510;SDS011;74730;43.858;18.424;2024-02-26T10:42:44;32.25;;;17.30;;
84510;SDS011;74730;43.858;18.424;2024-02-26T10:45:12;19.85;;;10.20;;
84510;SDS011;74730;43.858;18.424;2024-02-26T10:47:39;18.95;;;8.52;;
84510;SDS011;74730;43.858;18.424;2024-02-26T10:50:07;21.15;;;9.15;;
84510;SDS011;74730;43.858;18.424;2024-02-26T10:52:34;14.35;;;7.10;;
84510;SDS011;74730;43.858;18.424;2024-02-26T10:55:01;13.35;;;7.22;;
84510;SDS011;74730;43.858;18.424;2024-02-26T10:57:29;9.63;;;6.18;;
84510;SDS011;74730;43.858;18.424;2024-02-26T10:59:59;13.15;;;3.90;;
84510;SDS011;74730;43.858;18.424;2024-02-26T11:02:26;8.68;;;4.13;;
84510;SDS011;74730;43.858;18.424;2024-02-26T11:04:53;9.15;;;4.13;;
84510;SDS011;74730;43.858;18.424;2024-02-26T11:07:23;9.18;;;3.97;;
84510;SDS011;74730;43.858;18.424;2024-02-26T11:09:50;11.75;;;5.80;;
84510;SDS011;74730;43.858;18.424;2024-02-26T11:12:17;15.23;;;5.20;;
84510;SDS011;74730;43.858;18.424;2024-02-26T11:14:44;12.43;;;7.75;;
84510;SDS011;74730;43.858;18.424;2024-02-26T11:17:11;13.82;;;6.75;;
84510;SDS011;74730;43.858;18.424;2024-02-26T11:19:44;15.63;;;7.25;;
84510;SDS011;74730;43.858;18.424;2024-02-26T11:22:11;13.70;;;5.47;;
84510;SDS011;74730;43.858;18.424;2024-02-26T11:24:40;10.70;;;6.20;;
84510;SDS011;74730;43.858;18.424;2024-02-26T11:27:08;7.45;;;4.50;;
84510;SDS011;74730;43.858;18.424;2024-02-26T11:29:41;7.63;;;4.30;;
84510;SDS011;74730;43.858;18.424;2024-02-26T11:32:10;8.30;;;3.55;;
84510;SDS011;74730;43.858;18.424;2024-02-26T11:34:37;8.65;;;4.15;;
84510;SDS011;74730;43.858;18.424;2024-02-26T11:37:14;8.27;;;4.40;;
84510;SDS011;74730;43.858;18.424;2024-02-26T11:39:42;9.32;;;4.80;;
84510;SDS011;74730;43.858;18.424;2024-02-26T11:42:09;11.05;;;3.78;;
84510;SDS011;74730;43.858;18.424;2024-02-26T11:44:36;7.38;;;3.90;;
84510;SDS011;74730;43.858;18.424;2024-02-26T11:47:21;8.25;;;4.10;;
84510;SDS011;74730;43.858;18.424;2024-02-26T11:49:48;11.10;;;4.78;;
84510;SDS011;74730;43.858;18.424;2024-02-26T11:52:14;10.48;;;4.30;;
84510;SDS011;74730;43.858;18.424;2024-02-26T11:54:47;7.15;;;4.13;;
84510;SDS011;74730;43.858;18.424;2024-02-26T11:59:51;7.10;;;3.38;;
84510;SDS011;74730;43.858;18.424;2024-02-26T12:07:39;5.13;;;2.47;;
84510;SDS011;74730;43.858;18.424;2024-02-26T12:16:11;5.90;;;2.90;;
84510;SDS011;74730;43.858;18.424;2024-02-26T12:18:22;5.55;;;2.95;;
84510;SDS011;74730;43.858;18.424;2024-02-26T12:21:00;4.05;;;2.60;;
84510;SDS011;74730;43.858;18.424;2024-02-26T12:23:26;4.18;;;2.88;;
84510;SDS011;74730;43.858;18.424;2024-02-26T12:25:54;5.10;;;2.70;;
84510;SDS011;74730;43.858;18.424;2024-02-26T12:28:30;4.57;;;2.20;;
84510;SDS011;74730;43.858;18.424;2024-02-26T12:30:56;4.35;;;2.50;;
84510;SDS011;74730;43.858;18.424;2024-02-26T12:33:25;5.82;;;2.78;;
84510;SDS011;74730;43.858;18.424;2024-02-26T12:35:52;5.72;;;2.20;;
84510;SDS011;74730;43.858;18.424;2024-02-26T12:38:18;4.82;;;2.38;;
84510;SDS011;74730;43.858;18.424;2024-02-26T12:40:45;2.08;;;1.70;;
84510;SDS011;74730;43.858;18.424;2024-02-26T12:43:11;10.07;;;2.65;;
84510;SDS011;74730;43.858;18.424;2024-02-26T12:45:42;9.52;;;3.75;;
84510;SDS011;74730;43.858;18.424;2024-02-26T12:48:12;7.65;;;3.70;;
84510;SDS011;74730;43.858;18.424;2024-02-26T12:50:38;14.18;;;4.82;;
84510;SDS011;74730;43.858;18.424;2024-02-26T12:53:04;6.60;;;2.97;;
84510;SDS011;74730;43.858;18.424;2024-02-26T12:55:31;6.68;;;2.90;;
84510;SDS011;74730;43.858;18.424;2024-02-26T12:57:59;5.63;;;2.72;;
84510;SDS011;74730;43.858;18.424;2024-02-26T13:00:26;6.15;;;3.00;;
84510;SDS011;74730;43.858;18.424;2024-02-26T13:02:53;8.95;;;3.13;;
84510;SDS011;74730;43.858;18.424;2024-02-26T13:05:20;9.23;;;3.25;;
84510;SDS011;74730;43.858;18.424;2024-02-26T13:07:48;8.70;;;3.83;;
84510;SDS011;74730;43.858;18.424;2024-02-26T13:10:14;8.10;;;3.10;;
84510;SDS011;74730;43.858;18.424;2024-02-26T13:12:47;8.48;;;3.08;;
84510;SDS011;74730;43.858;18.424;2024-02-26T13:15:18;5.85;;;2.90;;
84510;SDS011;74730;43.858;18.424;2024-02-26T13:17:50;7.18;;;3.90;;
84510;SDS011;74730;43.858;18.424;2024-02-26T13:20:29;6.10;;;3.67;;
84510;SDS011;74730;43.858;18.424;2024-02-26T13:23:05;8.45;;;4.72;;
84510;SDS011;74730;43.858;18.424;2024-02-26T13:25:32;7.25;;;3.17;;
84510;SDS011;74730;43.858;18.424;2024-02-26T13:30:53;12.27;;;3.20;;
84510;SDS011;74730;43.858;18.424;2024-02-26T13:33:25;6.33;;;3.00;;
84510;SDS011;74730;43.858;18.424;2024-02-26T13:35:51;4.45;;;2.28;;
84510;SDS011;74730;43.858;18.424;2024-02-26T13:38:18;2.30;;;1.70;;
84510;SDS011;74730;43.858;18.424;2024-02-26T13:40:44;6.60;;;2.15;;
84510;SDS011;74730;43.858;18.424;2024-02-26T13:43:10;4.47;;;2.20;;
84510;SDS011;74730;43.858;18.424;2024-02-26T13:45:38;4.50;;;2.25;;
84510;SDS011;74730;43.858;18.424;2024-02-26T13:48:05;4.57;;;2.28;;
84510;SDS011;74730;43.858;18.424;2024-02-26T13:50:32;7.13;;;2.17;;
84510;SDS011;74730;43.858;18.424;2024-02-26T13:52:59;6.57;;;3.08;;
84510;SDS011;74730;43.858;18.424;2024-02-26T13:55:25;10.82;;;2.83;;
84510;SDS011;74730;43.858;18.424;2024-02-26T13:57:54;6.38;;;2.97;;
84510;SDS011;74730;43.858;18.424;2024-02-26T14:00:20;7.45;;;2.58;;
84510;SDS011;74730;43.858;18.424;2024-02-26T14:02:46;5.68;;;2.47;;
84510;SDS011;74730;43.858;18.424;2024-02-26T14:05:12;6.43;;;2.53;;
84510;SDS011;74730;43.858;18.424;2024-02-26T14:07:38;10.20;;;3.22;;
84510;SDS011;74730;43.858;18.424;2024-02-26T14:10:04;7.55;;;3.00;;
84510;SDS011;74730;43.858;18.424;2024-02-26T14:12:30;11.02;;;2.90;;
84510;SDS011;74730;43.858;18.424;2024-02-26T14:14:56;5.95;;;3.00;;
84510;SDS011;74730;43.858;18.424;2024-02-26T14:17:24;10.05;;;3.22;;
84510;SDS011;74730;43.858;18.424;2024-02-26T14:19:50;7.80;;;2.72;;
84510;SDS011;74730;43.858;18.424;2024-02-26T14:22:15;7.65;;;2.50;;
84510;SDS011;74730;43.858;18.424;2024-02-26T14:24:41;4.55;;;2.55;;
84510;SDS011;74730;43.858;18.424;2024-02-26T14:27:11;4.88;;;2.22;;